sensor_id;sensor_type;location;lat;lon;timestamp;temperature;humidity
12303;DHT22;6214;48.012;7.862;2023-03-19T00:00:42;15.40;93.30
12303;DHT22;6214;48.012;7.862;2023-03-19T00:03:09;15.40;93.20
12303;DHT22;6214;48.012;7.862;2023-03-19T00:05:36;15.40;93.30
12303;DHT22;6214;48.012;7.862;2023-03-19T00:08:04;15.30;93.60
12303;DHT22;6214;48.012;7.862;2023-03-19T00:10:31;15.30;94.00
12303;DHT22;6214;48.012;7.862;2023-03-19T00:12:57;15.20;93.80
12303;DHT22;6214;48.012;7.862;2023-03-19T00:15:24;15.30;93.80
12303;DHT22;6214;48.012;7.862;2023-03-19T00:17:51;15.30;93.70
12303;DHT22;6214;48.012;7.862;2023-03-19T00:20:19;15.30;93.50
12303;DHT22;6214;48.012;7.862;2023-03-19T00:22:47;15.30;93.40
12303;DHT22;6214;48.012;7.862;2023-03-19T00:25:14;15.40;93.20
12303;DHT22;6214;48.012;7.862;2023-03-19T00:27:41;15.40;93.30
12303;DHT22;6214;48.012;7.862;2023-03-19T00:30:10;15.40;92.80
12303;DHT22;6214;48.012;7.862;2023-03-19T00:32:37;15.40;92.60
12303;DHT22;6214;48.012;7.862;2023-03-19T00:35:05;15.40;92.90
12303;DHT22;6214;48.012;7.862;2023-03-19T00:37:33;15.30;92.80
12303;DHT22;6214;48.012;7.862;2023-03-19T00:40:00;15.30;93.20
12303;DHT22;6214;48.012;7.862;2023-03-19T00:42:27;15.30;93.20
12303;DHT22;6214;48.012;7.862;2023-03-19T00:44:54;15.30;93.30
12303;DHT22;6214;48.012;7.862;2023-03-19T00:47:22;15.30;93.90
12303;DHT22;6214;48.012;7.862;2023-03-19T00:49:48;15.40;93.70
12303;DHT22;6214;48.012;7.862;2023-03-19T00:52:15;15.30;94.60
12303;DHT22;6214;48.012;7.862;2023-03-19T00:54:42;15.10;94.90
12303;DHT22;6214;48.012;7.862;2023-03-19T00:57:09;15.10;95.70
12303;DHT22;6214;48.012;7.862;2023-03-19T00:59:36;15.00;97.00
12303;DHT22;6214;48.012;7.862;2023-03-19T01:02:03;15.00;98.00
12303;DHT22;6214;48.012;7.862;2023-03-19T01:04:30;14.90;99.90
12303;DHT22;6214;48.012;7.862;2023-03-19T01:06:57;14.80;99.90
12303;DHT22;6214;48.012;7.862;2023-03-19T01:09:24;14.80;99.90
12303;DHT22;6214;48.012;7.862;2023-03-19T01:11:52;15.00;99.90
12303;DHT22;6214;48.012;7.862;2023-03-19T01:14:19;15.10;99.90
12303;DHT22;6214;48.012;7.862;2023-03-19T01:16:46;15.20;99.90
12303;DHT22;6214;48.012;7.862;2023-03-19T01:19:13;15.20;99.90
12303;DHT22;6214;48.012;7.862;2023-03-19T01:21:41;15.10;99.90
12303;DHT22;6214;48.012;7.862;2023-03-19T01:24:12;15.00;99.90
12303;DHT22;6214;48.012;7.862;2023-03-19T01:26:39;14.90;99.90
12303;DHT22;6214;48.012;7.862;2023-03-19T01:29:06;14.90;99.90
12303;DHT22;6214;48.012;7.862;2023-03-19T01:31:34;14.90;99.90
12303;DHT22;6214;48.012;7.862;2023-03-19T01:34:02;14.90;99.90
12303;DHT22;6214;48.012;7.862;2023-03-19T01:36:29;14.80;99.90
12303;DHT22;6214;48.012;7.862;2023-03-19T01:38:56;14.90;99.90
12303;DHT22;6214;48.012;7.862;2023-03-19T01:41:23;14.80;99.90
12303;DHT22;6214;48.012;7.862;2023-03-19T01:43:50;14.70;99.90
12303;DHT22;6214;48.012;7.862;2023-03-19T01:46:33;14.70;99.90
12303;DHT22;6214;48.012;7.862;2023-03-19T01:49:05;14.70;99.90
12303;DHT22;6214;48.012;7.862;2023-03-19T01:51:40;14.60;99.90
12303;DHT22;6214;48.012;7.862;2023-03-19T01:54:13;14.50;99.90
12303;DHT22;6214;48.012;7.862;2023-03-19T01:56:42;14.50;99.90
12303;DHT22;6214;48.012;7.862;2023-03-19T01:59:16;14.50;99.90
12303;DHT22;6214;48.012;7.862;2023-03-19T02:01:52;14.50;99.90
12303;DHT22;6214;48.012;7.862;2023-03-19T02:04:21;14.40;99.90
12303;DHT22;6214;48.012;7.862;2023-03-19T02:06:49;14.40;99.90
12303;DHT22;6214;48.012;7.862;2023-03-19T02:09:17;14.20;99.90
12303;DHT22;6214;48.012;7.862;2023-03-19T02:11:45;14.10;99.90
12303;DHT22;6214;48.012;7.862;2023-03-19T02:14:12;14.10;99.90
12303;DHT22;6214;48.012;7.862;2023-03-19T02:16:39;14.10;99.90
12303;DHT22;6214;48.012;7.862;2023-03-19T02:19:09;14.20;99.90
12303;DHT22;6214;48.012;7.862;2023-03-19T02:21:39;14.20;99.90
12303;DHT22;6214;48.012;7.862;2023-03-19T02:24:29;14.30;99.90
12303;DHT22;6214;48.012;7.862;2023-03-19T02:26:58;14.40;99.90
12303;DHT22;6214;48.012;7.862;2023-03-19T02:29:25;14.40;99.90
12303;DHT22;6214;48.012;7.862;2023-03-19T02:31:52;14.50;99.90
12303;DHT22;6214;48.012;7.862;2023-03-19T02:37:22;14.40;99.90
12303;DHT22;6214;48.012;7.862;2023-03-19T02:40:10;14.40;99.90
12303;DHT22;6214;48.012;7.862;2023-03-19T02:42:38;14.40;99.90
12303;DHT22;6214;48.012;7.862;2023-03-19T02:45:05;14.40;99.90
12303;DHT22;6214;48.012;7.862;2023-03-19T02:47:32;14.40;99.90
12303;DHT22;6214;48.012;7.862;2023-03-19T02:49:59;14.50;99.90
12303;DHT22;6214;48.012;7.862;2023-03-19T02:52:26;14.50;99.90
12303;DHT22;6214;48.012;7.862;2023-03-19T02:54:53;14.50;99.90
12303;DHT22;6214;48.012;7.862;2023-03-19T02:57:20;14.50;99.90
12303;DHT22;6214;48.012;7.862;2023-03-19T02:59:47;14.50;99.90
12303;DHT22;6214;48.012;7.862;2023-03-19T03:02:14;14.50;99.90
12303;DHT22;6214;48.012;7.862;2023-03-19T03:04:41;14.50;99.90
12303;DHT22;6214;48.012;7.862;2023-03-19T03:07:08;14.50;99.90
12303;DHT22;6214;48.012;7.862;2023-03-19T03:09:34;14.50;99.90
12303;DHT22;6214;48.012;7.862;2023-03-19T03:12:02;14.50;99.90
12303;DHT22;6214;48.012;7.862;2023-03-19T03:14:29;14.50;99.90
12303;DHT22;6214;48.012;7.862;2023-03-19T03:16:56;14.50;99.90
12303;DHT22;6214;48.012;7.862;2023-03-19T03:19:24;14.60;99.90
12303;DHT22;6214;48.012;7.862;2023-03-19T03:21:51;14.60;99.90
12303;DHT22;6214;48.012;7.862;2023-03-19T03:24:18;14.60;99.90
12303;DHT22;6214;48.012;7.862;2023-03-19T03:26:45;14.60;99.90
12303;DHT22;6214;48.012;7.862;2023-03-19T03:29:14;14.60;99.90
12303;DHT22;6214;48.012;7.862;2023-03-19T03:31:41;14.60;99.90
12303;DHT22;6214;48.012;7.862;2023-03-19T03:34:08;14.50;99.90
12303;DHT22;6214;48.012;7.862;2023-03-19T03:36:34;14.60;99.90
12303;DHT22;6214;48.012;7.862;2023-03-19T03:39:02;14.60;99.90
12303;DHT22;6214;48.012;7.862;2023-03-19T03:41:29;14.50;99.90
12303;DHT22;6214;48.012;7.862;2023-03-19T03:43:56;14.50;99.90
12303;DHT22;6214;48.012;7.862;2023-03-19T03:46:23;14.40;99.90
12303;DHT22;6214;48.012;7.862;2023-03-19T03:48:50;14.40;99.90
12303;DHT22;6214;48.012;7.862;2023-03-19T03:51:18;14.40;99.90
12303;DHT22;6214;48.012;7.862;2023-03-19T03:53:45;14.40;99.90
12303;DHT22;6214;48.012;7.862;2023-03-19T03:56:12;14.50;99.90
12303;DHT22;6214;48.012;7.862;2023-03-19T03:58:38;14.60;99.90
12303;DHT22;6214;48.012;7.862;2023-03-19T04:01:06;14.60;99.90
12303;DHT22;6214;48.012;7.862;2023-03-19T04:03:33;14.60;99.90
12303;DHT22;6214;48.012;7.862;2023-03-19T04:06:00;14.70;99.90
12303;DHT22;6214;48.012;7.862;2023-03-19T04:08:27;14.50;99.90
12303;DHT22;6214;48.012;7.862;2023-03-19T04:10:54;14.50;99.90
12303;DHT22;6214;48.012;7.862;2023-03-19T04:13:20;14.50;99.90
12303;DHT22;6214;48.012;7.862;2023-03-19T04:15:47;14.60;99.90
12303;DHT22;6214;48.012;7.862;2023-03-19T04:18:14;14.50;99.90
12303;DHT22;6214;48.012;7.862;2023-03-19T04:20:42;14.50;99.90
12303;DHT22;6214;48.012;7.862;2023-03-19T04:23:09;14.60;99.90
12303;DHT22;6214;48.012;7.862;2023-03-19T04:25:38;14.50;99.90
12303;DHT22;6214;48.012;7.862;2023-03-19T04:28:06;14.60;99.90
12303;DHT22;6214;48.012;7.862;2023-03-19T04:30:34;14.60;99.90
12303;DHT22;6214;48.012;7.862;2023-03-19T04:33:02;14.60;99.90
12303;DHT22;6214;48.012;7.862;2023-03-19T04:35:30;14.60;99.90
12303;DHT22;6214;48.012;7.862;2023-03-19T04:37:57;14.70;99.90
12303;DHT22;6214;48.012;7.862;2023-03-19T04:40:24;14.70;99.90
12303;DHT22;6214;48.012;7.862;2023-03-19T04:42:51;14.70;99.90
12303;DHT22;6214;48.012;7.862;2023-03-19T04:45:18;14.70;99.90
12303;DHT22;6214;48.012;7.862;2023-03-19T04:47:45;14.70;99.90
12303;DHT22;6214;48.012;7.862;2023-03-19T04:50:12;14.60;99.90
12303;DHT22;6214;48.012;7.862;2023-03-19T04:52:39;14.70;99.90
12303;DHT22;6214;48.012;7.862;2023-03-19T04:55:07;14.60;99.90
12303;DHT22;6214;48.012;7.862;2023-03-19T04:57:34;14.50;99.90
12303;DHT22;6214;48.012;7.862;2023-03-19T05:00:01;14.60;99.90
12303;DHT22;6214;48.012;7.862;2023-03-19T05:02:28;14.50;99.90
12303;DHT22;6214;48.012;7.862;2023-03-19T05:04:55;14.60;99.90
12303;DHT22;6214;48.012;7.862;2023-03-19T05:07:22;14.50;99.90
12303;DHT22;6214;48.012;7.862;2023-03-19T05:09:49;14.50;99.90
12303;DHT22;6214;48.012;7.862;2023-03-19T05:12:15;14.30;99.90
12303;DHT22;6214;48.012;7.862;2023-03-19T05:14:42;14.30;99.90
12303;DHT22;6214;48.012;7.862;2023-03-19T05:17:09;14.20;99.90
12303;DHT22;6214;48.012;7.862;2023-03-19T05:19:37;14.10;99.90
12303;DHT22;6214;48.012;7.862;2023-03-19T05:22:05;14.00;99.90
12303;DHT22;6214;48.012;7.862;2023-03-19T05:24:32;14.00;99.90
12303;DHT22;6214;48.012;7.862;2023-03-19T05:26:58;14.00;99.90
12303;DHT22;6214;48.012;7.862;2023-03-19T05:29:25;14.00;99.90
12303;DHT22;6214;48.012;7.862;2023-03-19T05:31:53;14.00;99.90
12303;DHT22;6214;48.012;7.862;2023-03-19T05:34:20;14.00;99.90
12303;DHT22;6214;48.012;7.862;2023-03-19T05:36:47;14.00;99.90
12303;DHT22;6214;48.012;7.862;2023-03-19T05:39:14;14.00;99.90
12303;DHT22;6214;48.012;7.862;2023-03-19T05:41:41;13.90;99.90
12303;DHT22;6214;48.012;7.862;2023-03-19T05:44:07;13.90;99.90
12303;DHT22;6214;48.012;7.862;2023-03-19T05:46:34;13.90;99.90
12303;DHT22;6214;48.012;7.862;2023-03-19T05:49:02;13.90;99.90
12303;DHT22;6214;48.012;7.862;2023-03-19T05:51:29;13.80;99.90
12303;DHT22;6214;48.012;7.862;2023-03-19T05:53:57;13.70;99.90
12303;DHT22;6214;48.012;7.862;2023-03-19T05:56:23;13.70;99.90
12303;DHT22;6214;48.012;7.862;2023-03-19T05:58:51;13.70;99.90
12303;DHT22;6214;48.012;7.862;2023-03-19T06:01:17;13.80;99.90
12303;DHT22;6214;48.012;7.862;2023-03-19T06:03:44;13.80;99.90
12303;DHT22;6214;48.012;7.862;2023-03-19T06:06:11;13.60;99.90
12303;DHT22;6214;48.012;7.862;2023-03-19T06:08:38;13.50;99.90
12303;DHT22;6214;48.012;7.862;2023-03-19T06:11:05;13.30;99.90
12303;DHT22;6214;48.012;7.862;2023-03-19T06:13:32;13.40;99.90
12303;DHT22;6214;48.012;7.862;2023-03-19T06:15:59;13.30;99.90
12303;DHT22;6214;48.012;7.862;2023-03-19T06:18:26;13.20;99.90
12303;DHT22;6214;48.012;7.862;2023-03-19T06:20:53;13.10;99.90
12303;DHT22;6214;48.012;7.862;2023-03-19T06:23:20;13.20;99.90
12303;DHT22;6214;48.012;7.862;2023-03-19T06:25:47;13.20;99.90
12303;DHT22;6214;48.012;7.862;2023-03-19T06:28:14;13.20;99.90
12303;DHT22;6214;48.012;7.862;2023-03-19T06:30:42;13.20;99.90
12303;DHT22;6214;48.012;7.862;2023-03-19T06:33:09;13.20;99.90
12303;DHT22;6214;48.012;7.862;2023-03-19T06:35:36;13.10;99.90
12303;DHT22;6214;48.012;7.862;2023-03-19T06:38:03;13.20;99.90
12303;DHT22;6214;48.012;7.862;2023-03-19T06:40:30;13.20;99.90
12303;DHT22;6214;48.012;7.862;2023-03-19T06:42:57;13.30;99.90
12303;DHT22;6214;48.012;7.862;2023-03-19T06:45:24;13.50;99.90
12303;DHT22;6214;48.012;7.862;2023-03-19T06:47:51;13.30;99.90
12303;DHT22;6214;48.012;7.862;2023-03-19T06:50:19;13.80;99.90
12303;DHT22;6214;48.012;7.862;2023-03-19T06:52:46;14.20;99.90
12303;DHT22;6214;48.012;7.862;2023-03-19T06:55:13;14.50;99.90
12303;DHT22;6214;48.012;7.862;2023-03-19T06:57:40;14.70;99.90
12303;DHT22;6214;48.012;7.862;2023-03-19T07:00:07;14.90;99.90
12303;DHT22;6214;48.012;7.862;2023-03-19T07:02:37;15.10;99.90
12303;DHT22;6214;48.012;7.862;2023-03-19T07:05:04;15.30;99.90
12303;DHT22;6214;48.012;7.862;2023-03-19T07:07:31;15.80;99.90
12303;DHT22;6214;48.012;7.862;2023-03-19T07:09:58;16.20;99.90
12303;DHT22;6214;48.012;7.862;2023-03-19T07:12:25;17.00;99.90
12303;DHT22;6214;48.012;7.862;2023-03-19T07:14:55;17.60;99.90
12303;DHT22;6214;48.012;7.862;2023-03-19T07:17:23;18.00;99.90
12303;DHT22;6214;48.012;7.862;2023-03-19T07:19:50;18.30;99.90
12303;DHT22;6214;48.012;7.862;2023-03-19T07:22:17;18.10;99.90
12303;DHT22;6214;48.012;7.862;2023-03-19T07:24:44;17.70;99.90
12303;DHT22;6214;48.012;7.862;2023-03-19T07:27:11;17.20;99.90
12303;DHT22;6214;48.012;7.862;2023-03-19T07:29:38;16.90;99.90
12303;DHT22;6214;48.012;7.862;2023-03-19T07:32:05;16.90;99.90
12303;DHT22;6214;48.012;7.862;2023-03-19T07:34:32;16.60;99.90
12303;DHT22;6214;48.012;7.862;2023-03-19T07:36:59;16.50;99.90
12303;DHT22;6214;48.012;7.862;2023-03-19T07:39:27;16.40;99.90
12303;DHT22;6214;48.012;7.862;2023-03-19T07:41:54;16.50;99.90
12303;DHT22;6214;48.012;7.862;2023-03-19T07:44:21;16.50;99.90
12303;DHT22;6214;48.012;7.862;2023-03-19T07:46:48;16.80;99.90
12303;DHT22;6214;48.012;7.862;2023-03-19T07:49:15;17.30;99.90
12303;DHT22;6214;48.012;7.862;2023-03-19T07:51:42;17.90;99.90
12303;DHT22;6214;48.012;7.862;2023-03-19T07:54:08;18.80;99.90
12303;DHT22;6214;48.012;7.862;2023-03-19T07:56:35;22.20;99.90
12303;DHT22;6214;48.012;7.862;2023-03-19T07:59:02;24.40;98.30
12303;DHT22;6214;48.012;7.862;2023-03-19T08:01:29;25.50;93.10
12303;DHT22;6214;48.012;7.862;2023-03-19T08:03:56;25.20;91.80
12303;DHT22;6214;48.012;7.862;2023-03-19T08:06:23;24.60;90.40
12303;DHT22;6214;48.012;7.862;2023-03-19T08:08:50;25.60;87.80
12303;DHT22;6214;48.012;7.862;2023-03-19T08:11:17;25.40;85.50
12303;DHT22;6214;48.012;7.862;2023-03-19T08:13:44;25.50;83.10
12303;DHT22;6214;48.012;7.862;2023-03-19T08:16:11;26.70;80.60
12303;DHT22;6214;48.012;7.862;2023-03-19T08:18:39;26.90;77.20
12303;DHT22;6214;48.012;7.862;2023-03-19T08:21:06;27.80;73.60
12303;DHT22;6214;48.012;7.862;2023-03-19T08:23:33;29.20;70.60
12303;DHT22;6214;48.012;7.862;2023-03-19T08:26:00;29.90;64.80
12303;DHT22;6214;48.012;7.862;2023-03-19T08:28:27;29.40;61.80
12303;DHT22;6214;48.012;7.862;2023-03-19T08:30:54;30.20;61.80
12303;DHT22;6214;48.012;7.862;2023-03-19T08:33:21;31.40;58.00
12303;DHT22;6214;48.012;7.862;2023-03-19T08:35:48;28.90;55.80
12303;DHT22;6214;48.012;7.862;2023-03-19T08:38:16;29.20;58.30
12303;DHT22;6214;48.012;7.862;2023-03-19T08:40:43;27.20;58.40
12303;DHT22;6214;48.012;7.862;2023-03-19T08:43:09;26.70;62.00
12303;DHT22;6214;48.012;7.862;2023-03-19T08:45:36;26.30;63.80
12303;DHT22;6214;48.012;7.862;2023-03-19T08:48:03;25.90;63.60
12303;DHT22;6214;48.012;7.862;2023-03-19T08:50:30;25.80;65.50
12303;DHT22;6214;48.012;7.862;2023-03-19T08:52:58;25.30;65.90
12303;DHT22;6214;48.012;7.862;2023-03-19T08:55:25;23.80;68.80
12303;DHT22;6214;48.012;7.862;2023-03-19T08:57:52;22.30;72.50
12303;DHT22;6214;48.012;7.862;2023-03-19T09:00:19;22.10;76.80
12303;DHT22;6214;48.012;7.862;2023-03-19T09:02:46;22.20;78.10
12303;DHT22;6214;48.012;7.862;2023-03-19T09:05:13;21.70;79.70
12303;DHT22;6214;48.012;7.862;2023-03-19T09:07:40;20.80;82.30
12303;DHT22;6214;48.012;7.862;2023-03-19T09:10:07;20.80;86.30
12303;DHT22;6214;48.012;7.862;2023-03-19T09:12:34;20.40;88.30
12303;DHT22;6214;48.012;7.862;2023-03-19T09:15:01;20.20;90.70
12303;DHT22;6214;48.012;7.862;2023-03-19T09:17:29;20.30;91.50
12303;DHT22;6214;48.012;7.862;2023-03-19T09:19:56;20.70;91.60
12303;DHT22;6214;48.012;7.862;2023-03-19T09:22:23;20.60;92.00
12303;DHT22;6214;48.012;7.862;2023-03-19T09:24:49;20.30;92.20
12303;DHT22;6214;48.012;7.862;2023-03-19T09:27:16;20.10;93.40
12303;DHT22;6214;48.012;7.862;2023-03-19T09:29:45;20.50;94.10
12303;DHT22;6214;48.012;7.862;2023-03-19T09:32:12;21.00;93.50
12303;DHT22;6214;48.012;7.862;2023-03-19T09:34:39;21.30;93.20
12303;DHT22;6214;48.012;7.862;2023-03-19T09:37:06;20.90;93.40
12303;DHT22;6214;48.012;7.862;2023-03-19T09:39:34;20.60;93.90
12303;DHT22;6214;48.012;7.862;2023-03-19T09:44:43;20.20;95.80
12303;DHT22;6214;48.012;7.862;2023-03-19T09:47:29;20.10;96.20
12303;DHT22;6214;48.012;7.862;2023-03-19T09:50:00;20.30;96.30
12303;DHT22;6214;48.012;7.862;2023-03-19T09:57:51;19.50;97.60
12303;DHT22;6214;48.012;7.862;2023-03-19T10:00:31;19.60;98.00
12303;DHT22;6214;48.012;7.862;2023-03-19T10:14:09;19.10;99.90
12303;DHT22;6214;48.012;7.862;2023-03-19T10:16:42;19.50;99.90
12303;DHT22;6214;48.012;7.862;2023-03-19T10:19:12;19.60;99.90
12303;DHT22;6214;48.012;7.862;2023-03-19T10:21:53;19.50;99.90
12303;DHT22;6214;48.012;7.862;2023-03-19T10:24:38;19.10;99.90
12303;DHT22;6214;48.012;7.862;2023-03-19T10:27:16;19.20;99.90
12303;DHT22;6214;48.012;7.862;2023-03-19T10:29:44;18.80;99.90
12303;DHT22;6214;48.012;7.862;2023-03-19T10:32:16;18.70;99.90
12303;DHT22;6214;48.012;7.862;2023-03-19T10:34:49;18.60;99.90
12303;DHT22;6214;48.012;7.862;2023-03-19T10:39:44;18.50;99.90
12303;DHT22;6214;48.012;7.862;2023-03-19T10:47:40;19.00;99.90
12303;DHT22;6214;48.012;7.862;2023-03-19T10:50:16;19.00;99.90
12303;DHT22;6214;48.012;7.862;2023-03-19T10:52:45;19.30;99.90
12303;DHT22;6214;48.012;7.862;2023-03-19T10:55:23;19.60;99.90
12303;DHT22;6214;48.012;7.862;2023-03-19T10:58:00;20.00;99.90
12303;DHT22;6214;48.012;7.862;2023-03-19T11:00:30;19.80;99.90
12303;DHT22;6214;48.012;7.862;2023-03-19T11:03:01;20.00;99.90
12303;DHT22;6214;48.012;7.862;2023-03-19T11:05:33;20.10;99.90
12303;DHT22;6214;48.012;7.862;2023-03-19T11:08:10;20.20;99.90
12303;DHT22;6214;48.012;7.862;2023-03-19T11:10:54;20.30;99.90
12303;DHT22;6214;48.012;7.862;2023-03-19T11:13:25;20.30;99.90
12303;DHT22;6214;48.012;7.862;2023-03-19T11:15:56;20.50;99.90
12303;DHT22;6214;48.012;7.862;2023-03-19T11:18:29;20.30;99.90
12303;DHT22;6214;48.012;7.862;2023-03-19T11:21:19;20.30;99.90
12303;DHT22;6214;48.012;7.862;2023-03-19T11:23:51;20.40;99.90
12303;DHT22;6214;48.012;7.862;2023-03-19T11:26:19;20.40;99.90
12303;DHT22;6214;48.012;7.862;2023-03-19T11:28:51;20.30;99.90
12303;DHT22;6214;48.012;7.862;2023-03-19T11:31:25;20.30;99.90
12303;DHT22;6214;48.012;7.862;2023-03-19T11:34:19;20.30;99.90
12303;DHT22;6214;48.012;7.862;2023-03-19T11:37:19;20.10;99.90
12303;DHT22;6214;48.012;7.862;2023-03-19T11:39:59;19.90;99.90
12303;DHT22;6214;48.012;7.862;2023-03-19T11:45:31;19.60;99.90
12303;DHT22;6214;48.012;7.862;2023-03-19T11:50:59;19.90;99.90
12303;DHT22;6214;48.012;7.862;2023-03-19T11:53:37;20.00;99.90
12303;DHT22;6214;48.012;7.862;2023-03-19T11:56:14;19.90;99.90
12303;DHT22;6214;48.012;7.862;2023-03-19T12:12:22;19.90;99.90
12303;DHT22;6214;48.012;7.862;2023-03-19T12:17:50;19.90;99.90
12303;DHT22;6214;48.012;7.862;2023-03-19T12:23:45;19.40;99.90
12303;DHT22;6214;48.012;7.862;2023-03-19T12:26:38;19.80;99.90
12303;DHT22;6214;48.012;7.862;2023-03-19T12:32:55;19.90;99.90
12303;DHT22;6214;48.012;7.862;2023-03-19T12:35:37;19.80;99.90
12303;DHT22;6214;48.012;7.862;2023-03-19T12:38:16;19.20;99.90
12303;DHT22;6214;48.012;7.862;2023-03-19T12:40:52;19.10;99.90
12303;DHT22;6214;48.012;7.862;2023-03-19T12:43:29;18.90;99.90
12303;DHT22;6214;48.012;7.862;2023-03-19T12:46:12;18.80;99.90
12303;DHT22;6214;48.012;7.862;2023-03-19T12:48:49;18.60;99.90
12303;DHT22;6214;48.012;7.862;2023-03-19T12:51:19;18.50;99.90
12303;DHT22;6214;48.012;7.862;2023-03-19T12:59:23;18.20;99.90
12303;DHT22;6214;48.012;7.862;2023-03-19T13:02:02;18.10;99.90
12303;DHT22;6214;48.012;7.862;2023-03-19T13:04:35;18.10;99.90
12303;DHT22;6214;48.012;7.862;2023-03-19T13:07:20;17.90;99.90
12303;DHT22;6214;48.012;7.862;2023-03-19T13:09:55;17.80;99.90
12303;DHT22;6214;48.012;7.862;2023-03-19T13:12:30;18.00;99.90
12303;DHT22;6214;48.012;7.862;2023-03-19T13:18:45;18.50;99.90
12303;DHT22;6214;48.012;7.862;2023-03-19T13:23:42;18.50;99.90
12303;DHT22;6214;48.012;7.862;2023-03-19T13:26:12;18.30;99.90
12303;DHT22;6214;48.012;7.862;2023-03-19T13:29:14;18.30;99.90
12303;DHT22;6214;48.012;7.862;2023-03-19T13:31:44;18.50;99.90
12303;DHT22;6214;48.012;7.862;2023-03-19T13:34:25;18.80;99.90
12303;DHT22;6214;48.012;7.862;2023-03-19T13:37:14;18.70;99.90
12303;DHT22;6214;48.012;7.862;2023-03-19T13:39:43;19.00;99.90
12303;DHT22;6214;48.012;7.862;2023-03-19T13:44:53;18.80;99.90
12303;DHT22;6214;48.012;7.862;2023-03-19T13:55:31;19.30;99.90
12303;DHT22;6214;48.012;7.862;2023-03-19T14:05:47;17.30;99.90
12303;DHT22;6214;48.012;7.862;2023-03-19T14:08:20;16.40;99.90
12303;DHT22;6214;48.012;7.862;2023-03-19T14:10:54;16.30;99.90
12303;DHT22;6214;48.012;7.862;2023-03-19T14:13:33;16.30;99.90
12303;DHT22;6214;48.012;7.862;2023-03-19T14:16:23;16.60;99.90
12303;DHT22;6214;48.012;7.862;2023-03-19T14:18:56;17.00;99.90
12303;DHT22;6214;48.012;7.862;2023-03-19T14:24:36;17.20;99.90
12303;DHT22;6214;48.012;7.862;2023-03-19T14:27:46;17.30;99.90
12303;DHT22;6214;48.012;7.862;2023-03-19T14:30:23;17.20;99.90
12303;DHT22;6214;48.012;7.862;2023-03-19T14:32:54;17.10;99.90
12303;DHT22;6214;48.012;7.862;2023-03-19T14:35:24;17.10;99.90
12303;DHT22;6214;48.012;7.862;2023-03-19T14:37:53;16.90;99.90
12303;DHT22;6214;48.012;7.862;2023-03-19T14:40:26;16.60;99.90
12303;DHT22;6214;48.012;7.862;2023-03-19T14:46:01;16.30;99.90
12303;DHT22;6214;48.012;7.862;2023-03-19T14:54:33;16.00;99.90
12303;DHT22;6214;48.012;7.862;2023-03-19T14:57:06;16.10;99.90
12303;DHT22;6214;48.012;7.862;2023-03-19T14:59:38;16.10;99.90
12303;DHT22;6214;48.012;7.862;2023-03-19T15:02:30;16.20;99.90
12303;DHT22;6214;48.012;7.862;2023-03-19T15:04:59;16.10;99.90
12303;DHT22;6214;48.012;7.862;2023-03-19T15:07:37;16.30;99.90
12303;DHT22;6214;48.012;7.862;2023-03-19T15:10:07;16.20;99.90
12303;DHT22;6214;48.012;7.862;2023-03-19T15:18:16;16.20;99.90
12303;DHT22;6214;48.012;7.862;2023-03-19T15:20:49;16.10;99.90
12303;DHT22;6214;48.012;7.862;2023-03-19T15:23:23;16.10;99.90
12303;DHT22;6214;48.012;7.862;2023-03-19T15:25:57;16.00;99.90
12303;DHT22;6214;48.012;7.862;2023-03-19T15:28:31;16.10;99.90
12303;DHT22;6214;48.012;7.862;2023-03-19T15:31:04;16.30;99.90
12303;DHT22;6214;48.012;7.862;2023-03-19T15:33:51;16.80;99.90
12303;DHT22;6214;48.012;7.862;2023-03-19T15:36:27;17.20;99.90
12303;DHT22;6214;48.012;7.862;2023-03-19T15:39:01;17.50;99.90
12303;DHT22;6214;48.012;7.862;2023-03-19T15:41:31;17.50;99.90
12303;DHT22;6214;48.012;7.862;2023-03-19T15:43:59;17.50;99.90
12303;DHT22;6214;48.012;7.862;2023-03-19T15:46:31;17.50;99.90
12303;DHT22;6214;48.012;7.862;2023-03-19T15:49:14;17.40;99.90
12303;DHT22;6214;48.012;7.862;2023-03-19T15:51:44;17.40;99.90
12303;DHT22;6214;48.012;7.862;2023-03-19T15:54:12;17.20;99.90
12303;DHT22;6214;48.012;7.862;2023-03-19T15:56:39;17.20;99.90
12303;DHT22;6214;48.012;7.862;2023-03-19T15:59:06;17.10;99.90
12303;DHT22;6214;48.012;7.862;2023-03-19T16:01:33;17.20;99.90
12303;DHT22;6214;48.012;7.862;2023-03-19T16:04:04;17.10;99.90
12303;DHT22;6214;48.012;7.862;2023-03-19T16:06:37;17.30;99.90
12303;DHT22;6214;48.012;7.862;2023-03-19T16:09:30;17.20;99.90
12303;DHT22;6214;48.012;7.862;2023-03-19T16:11:59;17.30;99.90
12303;DHT22;6214;48.012;7.862;2023-03-19T16:14:36;17.40;99.90
12303;DHT22;6214;48.012;7.862;2023-03-19T16:17:14;17.30;99.90
12303;DHT22;6214;48.012;7.862;2023-03-19T16:19:52;17.20;99.90
12303;DHT22;6214;48.012;7.862;2023-03-19T16:22:28;17.10;99.90
12303;DHT22;6214;48.012;7.862;2023-03-19T16:24:56;17.00;99.90
12303;DHT22;6214;48.012;7.862;2023-03-19T16:27:49;16.90;99.90
12303;DHT22;6214;48.012;7.862;2023-03-19T16:30:25;16.90;99.90
12303;DHT22;6214;48.012;7.862;2023-03-19T16:33:05;17.10;99.90
12303;DHT22;6214;48.012;7.862;2023-03-19T16:35:33;17.10;99.90
12303;DHT22;6214;48.012;7.862;2023-03-19T16:38:23;17.10;99.90
12303;DHT22;6214;48.012;7.862;2023-03-19T16:44:15;17.00;99.90
12303;DHT22;6214;48.012;7.862;2023-03-19T16:46:43;16.90;99.90
12303;DHT22;6214;48.012;7.862;2023-03-19T16:49:10;16.80;99.90
12303;DHT22;6214;48.012;7.862;2023-03-19T16:51:37;16.50;99.90
12303;DHT22;6214;48.012;7.862;2023-03-19T16:54:04;16.30;99.90
12303;DHT22;6214;48.012;7.862;2023-03-19T16:56:32;16.20;99.90
12303;DHT22;6214;48.012;7.862;2023-03-19T16:59:01;15.90;99.90
12303;DHT22;6214;48.012;7.862;2023-03-19T17:01:28;15.70;99.90
12303;DHT22;6214;48.012;7.862;2023-03-19T17:03:55;15.70;99.90
12303;DHT22;6214;48.012;7.862;2023-03-19T17:06:22;15.60;99.90
12303;DHT22;6214;48.012;7.862;2023-03-19T17:08:49;15.50;99.90
12303;DHT22;6214;48.012;7.862;2023-03-19T17:11:28;15.40;99.90
12303;DHT22;6214;48.012;7.862;2023-03-19T17:13:57;15.30;99.90
12303;DHT22;6214;48.012;7.862;2023-03-19T17:16:26;15.20;99.90
12303;DHT22;6214;48.012;7.862;2023-03-19T17:18:54;15.10;99.90
12303;DHT22;6214;48.012;7.862;2023-03-19T17:21:22;15.20;99.90
12303;DHT22;6214;48.012;7.862;2023-03-19T17:23:51;15.20;99.90
12303;DHT22;6214;48.012;7.862;2023-03-19T17:26:23;15.10;99.90
12303;DHT22;6214;48.012;7.862;2023-03-19T17:28:55;15.00;99.90
12303;DHT22;6214;48.012;7.862;2023-03-19T17:31:25;15.00;99.90
12303;DHT22;6214;48.012;7.862;2023-03-19T17:34:02;14.90;99.90
12303;DHT22;6214;48.012;7.862;2023-03-19T17:36:29;14.90;99.90
12303;DHT22;6214;48.012;7.862;2023-03-19T17:38:56;14.80;99.90
12303;DHT22;6214;48.012;7.862;2023-03-19T17:41:23;14.80;99.90
12303;DHT22;6214;48.012;7.862;2023-03-19T17:43:51;14.60;99.90
12303;DHT22;6214;48.012;7.862;2023-03-19T17:46:22;14.50;99.90
12303;DHT22;6214;48.012;7.862;2023-03-19T17:48:51;14.50;99.90
12303;DHT22;6214;48.012;7.862;2023-03-19T17:51:19;14.50;99.90
12303;DHT22;6214;48.012;7.862;2023-03-19T17:53:53;14.40;99.90